sensor_id;sensor_type;location;lat;lon;timestamp;pressure;altitude;pressure_sealevel;temperature;humidity
68793;BME280;55778;54.346;10.210;2023-04-23T00:00:03;100066.88;;;14.82;94.03
68793;BME280;55778;54.346;10.210;2023-04-23T00:02:32;100061.69;;;14.87;93.76
68793;BME280;55778;54.346;10.210;2023-04-23T00:05:01;100058.84;;;14.81;93.70
68793;BME280;55778;54.346;10.210;2023-04-23T00:07:28;100055.53;;;14.85;93.77
68793;BME280;55778;54.346;10.210;2023-04-23T00:09:56;100050.78;;;14.79;94.13
68793;BME280;55778;54.346;10.210;2023-04-23T00:12:22;100049.59;;;14.82;93.97
68793;BME280;55778;54.346;10.210;2023-04-23T00:14:48;100052.03;;;14.91;93.95
68793;BME280;55778;54.346;10.210;2023-04-23T00:17:13;100050.31;;;14.90;93.59
68793;BME280;55778;54.346;10.210;2023-04-23T00:19:39;100049.41;;;14.83;94.15
68793;BME280;55778;54.346;10.210;2023-04-23T00:22:05;100042.56;;;14.79;94.33
68793;BME280;55778;54.346;10.210;2023-04-23T00:24:30;100039.38;;;14.76;94.50
68793;BME280;55778;54.346;10.210;2023-04-23T00:26:58;100039.81;;;14.79;94.44
68793;BME280;55778;54.346;10.210;2023-04-23T00:29:23;100035.75;;;14.75;94.94
68793;BME280;55778;54.346;10.210;2023-04-23T00:31:48;100028.28;;;14.69;95.04
68793;BME280;55778;54.346;10.210;2023-04-23T00:34:14;100034.53;;;14.63;95.74
68793;BME280;55778;54.346;10.210;2023-04-23T00:36:39;100033.97;;;14.68;95.71
68793;BME280;55778;54.346;10.210;2023-04-23T00:39:05;100028.50;;;14.68;95.71
68793;BME280;55778;54.346;10.210;2023-04-23T00:41:30;100021.69;;;14.64;95.67
68793;BME280;55778;54.346;10.210;2023-04-23T00:43:56;100033.91;;;14.61;95.83
68793;BME280;55778;54.346;10.210;2023-04-23T00:46:24;100031.16;;;14.61;96.13
68793;BME280;55778;54.346;10.210;2023-04-23T00:48:51;100031.53;;;14.58;96.26
68793;BME280;55778;54.346;10.210;2023-04-23T00:51:17;100022.81;;;14.55;96.67
68793;BME280;55778;54.346;10.210;2023-04-23T00:53:43;100030.38;;;14.53;97.14
68793;BME280;55778;54.346;10.210;2023-04-23T00:56:08;100020.47;;;14.52;97.28
68793;BME280;55778;54.346;10.210;2023-04-23T00:58:35;100021.88;;;14.48;97.65
68793;BME280;55778;54.346;10.210;2023-04-23T01:01:00;100014.31;;;14.50;98.03
68793;BME280;55778;54.346;10.210;2023-04-23T01:03:29;100017.41;;;14.47;98.54
68793;BME280;55778;54.346;10.210;2023-04-23T01:05:57;100022.72;;;14.48;98.83
68793;BME280;55778;54.346;10.210;2023-04-23T01:08:23;100025.19;;;14.43;99.83
68793;BME280;55778;54.346;10.210;2023-04-23T01:10:49;100021.66;;;14.35;100.00
68793;BME280;55778;54.346;10.210;2023-04-23T01:13:15;100022.81;;;14.40;100.00
68793;BME280;55778;54.346;10.210;2023-04-23T01:15:42;100031.59;;;14.36;100.00
68793;BME280;55778;54.346;10.210;2023-04-23T01:18:08;100027.34;;;14.33;100.00
68793;BME280;55778;54.346;10.210;2023-04-23T01:20:34;100023.00;;;14.24;100.00
68793;BME280;55778;54.346;10.210;2023-04-23T01:23:01;100026.47;;;14.18;100.00
68793;BME280;55778;54.346;10.210;2023-04-23T01:25:27;100025.41;;;14.19;100.00
68793;BME280;55778;54.346;10.210;2023-04-23T01:27:52;100027.19;;;14.12;100.00
68793;BME280;55778;54.346;10.210;2023-04-23T01:30:18;100025.03;;;14.07;100.00
68793;BME280;55778;54.346;10.210;2023-04-23T01:32:43;100028.97;;;14.05;100.00
68793;BME280;55778;54.346;10.210;2023-04-23T01:35:10;100026.78;;;14.00;100.00
68793;BME280;55778;54.346;10.210;2023-04-23T01:37:37;100036.50;;;13.88;100.00
68793;BME280;55778;54.346;10.210;2023-04-23T01:40:04;100029.88;;;13.97;100.00
68793;BME280;55778;54.346;10.210;2023-04-23T01:42:30;100031.78;;;13.97;100.00
68793;BME280;55778;54.346;10.210;2023-04-23T01:44:55;100023.09;;;13.93;100.00
68793;BME280;55778;54.346;10.210;2023-04-23T01:47:20;100027.06;;;13.91;100.00
68793;BME280;55778;54.346;10.210;2023-04-23T01:49:46;100027.59;;;13.86;100.00
68793;BME280;55778;54.346;10.210;2023-04-23T01:52:11;100022.44;;;13.91;100.00
68793;BME280;55778;54.346;10.210;2023-04-23T01:54:37;100025.63;;;13.95;100.00
68793;BME280;55778;54.346;10.210;2023-04-23T01:57:02;100022.69;;;13.82;100.00
68793;BME280;55778;54.346;10.210;2023-04-23T01:59:28;100021.75;;;13.89;100.00
68793;BME280;55778;54.346;10.210;2023-04-23T02:01:53;100036.75;;;13.56;100.00
68793;BME280;55778;54.346;10.210;2023-04-23T02:04:18;100042.41;;;12.94;100.00
68793;BME280;55778;54.346;10.210;2023-04-23T02:06:47;100042.03;;;12.58;100.00
68793;BME280;55778;54.346;10.210;2023-04-23T02:09:13;100030.28;;;12.50;100.00
68793;BME280;55778;54.346;10.210;2023-04-23T02:11:38;100041.44;;;12.32;100.00
68793;BME280;55778;54.346;10.210;2023-04-23T02:14:04;100053.22;;;12.25;100.00
68793;BME280;55778;54.346;10.210;2023-04-23T02:16:30;100055.16;;;12.00;100.00
68793;BME280;55778;54.346;10.210;2023-04-23T02:18:55;100068.97;;;11.82;100.00
68793;BME280;55778;54.346;10.210;2023-04-23T02:21:24;100077.13;;;11.58;100.00
68793;BME280;55778;54.346;10.210;2023-04-23T02:23:50;100067.38;;;11.40;100.00
68793;BME280;55778;54.346;10.210;2023-04-23T02:26:16;100071.44;;;11.28;100.00
68793;BME280;55778;54.346;10.210;2023-04-23T02:28:43;100079.63;;;11.20;100.00
68793;BME280;55778;54.346;10.210;2023-04-23T02:31:08;100086.06;;;11.11;100.00
68793;BME280;55778;54.346;10.210;2023-04-23T02:33:33;100082.44;;;11.02;100.00
68793;BME280;55778;54.346;10.210;2023-04-23T02:35:59;100080.06;;;10.99;100.00
68793;BME280;55778;54.346;10.210;2023-04-23T02:38:24;100082.78;;;10.99;100.00
68793;BME280;55778;54.346;10.210;2023-04-23T02:40:50;100088.03;;;10.93;100.00
68793;BME280;55778;54.346;10.210;2023-04-23T02:43:15;100090.06;;;10.91;100.00
68793;BME280;55778;54.346;10.210;2023-04-23T02:45:42;100105.41;;;10.92;100.00
68793;BME280;55778;54.346;10.210;2023-04-23T02:48:09;100101.28;;;10.88;100.00
68793;BME280;55778;54.346;10.210;2023-04-23T02:50:34;100099.06;;;10.83;100.00
68793;BME280;55778;54.346;10.210;2023-04-23T02:53:00;100108.69;;;10.70;100.00
68793;BME280;55778;54.346;10.210;2023-04-23T02:55:25;100115.47;;;10.58;100.00
68793;BME280;55778;54.346;10.210;2023-04-23T02:57:56;100105.31;;;10.42;100.00
68793;BME280;55778;54.346;10.210;2023-04-23T03:00:21;100102.19;;;10.37;100.00
68793;BME280;55778;54.346;10.210;2023-04-23T03:02:46;100121.72;;;10.25;100.00
68793;BME280;55778;54.346;10.210;2023-04-23T03:05:12;100112.84;;;10.23;100.00
68793;BME280;55778;54.346;10.210;2023-04-23T03:07:37;100119.03;;;10.07;100.00
68793;BME280;55778;54.346;10.210;2023-04-23T03:10:03;100125.53;;;10.14;100.00
68793;BME280;55778;54.346;10.210;2023-04-23T03:12:30;100123.59;;;10.06;100.00
68793;BME280;55778;54.346;10.210;2023-04-23T03:14:56;100130.44;;;9.93;100.00
68793;BME280;55778;54.346;10.210;2023-04-23T03:17:21;100132.44;;;9.91;100.00
68793;BME280;55778;54.346;10.210;2023-04-23T03:19:46;100128.50;;;9.85;100.00
68793;BME280;55778;54.346;10.210;2023-04-23T03:22:12;100133.41;;;9.82;100.00
68793;BME280;55778;54.346;10.210;2023-04-23T03:24:38;100122.28;;;9.75;100.00
68793;BME280;55778;54.346;10.210;2023-04-23T03:27:03;100131.69;;;9.81;100.00
68793;BME280;55778;54.346;10.210;2023-04-23T03:29:29;100136.19;;;9.72;100.00
68793;BME280;55778;54.346;10.210;2023-04-23T03:31:54;100138.53;;;9.67;100.00
68793;BME280;55778;54.346;10.210;2023-04-23T03:34:20;100143.13;;;9.67;100.00
68793;BME280;55778;54.346;10.210;2023-04-23T03:36:46;100142.72;;;9.62;100.00
68793;BME280;55778;54.346;10.210;2023-04-23T03:39:13;100149.72;;;9.64;100.00
68793;BME280;55778;54.346;10.210;2023-04-23T03:41:39;100146.22;;;9.54;100.00
68793;BME280;55778;54.346;10.210;2023-04-23T03:44:04;100142.09;;;9.50;100.00
68793;BME280;55778;54.346;10.210;2023-04-23T03:46:30;100143.59;;;9.45;100.00
68793;BME280;55778;54.346;10.210;2023-04-23T03:48:55;100141.63;;;9.37;100.00
68793;BME280;55778;54.346;10.210;2023-04-23T03:51:21;100148.97;;;9.27;100.00
68793;BME280;55778;54.346;10.210;2023-04-23T03:53:46;100144.56;;;9.26;100.00
68793;BME280;55778;54.346;10.210;2023-04-23T03:56:12;100140.28;;;9.24;100.00
68793;BME280;55778;54.346;10.210;2023-04-23T03:58:37;100137.75;;;9.13;100.00
68793;BME280;55778;54.346;10.210;2023-04-23T04:01:03;100143.94;;;9.05;100.00
68793;BME280;55778;54.346;10.210;2023-04-23T04:03:28;100134.25;;;9.03;100.00
68793;BME280;55778;54.346;10.210;2023-04-23T04:05:54;100133.97;;;8.96;100.00
68793;BME280;55778;54.346;10.210;2023-04-23T04:08:19;100136.16;;;8.93;100.00
68793;BME280;55778;54.346;10.210;2023-04-23T04:10:46;100143.59;;;8.91;100.00
68793;BME280;55778;54.346;10.210;2023-04-23T04:13:12;100140.03;;;8.90;100.00
68793;BME280;55778;54.346;10.210;2023-04-23T04:15:37;100146.16;;;8.92;100.00
68793;BME280;55778;54.346;10.210;2023-04-23T04:18:02;100146.63;;;8.88;100.00
68793;BME280;55778;54.346;10.210;2023-04-23T04:20:28;100143.34;;;8.84;100.00
68793;BME280;55778;54.346;10.210;2023-04-23T04:22:54;100146.03;;;8.94;100.00
68793;BME280;55778;54.346;10.210;2023-04-23T04:25:19;100146.03;;;8.94;100.00
68793;BME280;55778;54.346;10.210;2023-04-23T04:27:46;100150.88;;;8.90;100.00
68793;BME280;55778;54.346;10.210;2023-04-23T04:30:12;100148.03;;;8.92;100.00
68793;BME280;55778;54.346;10.210;2023-04-23T04:32:38;100150.44;;;8.95;100.00
68793;BME280;55778;54.346;10.210;2023-04-23T04:35:07;100154.91;;;8.86;100.00
68793;BME280;55778;54.346;10.210;2023-04-23T04:37:33;100154.34;;;8.83;100.00
68793;BME280;55778;54.346;10.210;2023-04-23T04:39:59;100150.81;;;8.82;100.00
68793;BME280;55778;54.346;10.210;2023-04-23T04:42:26;100157.63;;;8.86;100.00
68793;BME280;55778;54.346;10.210;2023-04-23T04:44:51;100147.38;;;8.80;100.00
68793;BME280;55778;54.346;10.210;2023-04-23T04:47:17;100165.84;;;8.77;100.00
68793;BME280;55778;54.346;10.210;2023-04-23T04:49:43;100154.25;;;8.75;100.00
68793;BME280;55778;54.346;10.210;2023-04-23T04:52:09;100150.13;;;8.71;100.00
68793;BME280;55778;54.346;10.210;2023-04-23T04:54:35;100152.41;;;8.75;100.00
68793;BME280;55778;54.346;10.210;2023-04-23T04:57:00;100163.81;;;8.79;100.00
68793;BME280;55778;54.346;10.210;2023-04-23T04:59:26;100170.50;;;8.84;100.00
68793;BME280;55778;54.346;10.210;2023-04-23T05:01:51;100171.81;;;8.80;100.00
68793;BME280;55778;54.346;10.210;2023-04-23T05:04:17;100167.63;;;8.86;100.00
68793;BME280;55778;54.346;10.210;2023-04-23T05:06:42;100172.63;;;8.90;100.00
68793;BME280;55778;54.346;10.210;2023-04-23T05:09:09;100170.50;;;8.84;100.00
68793;BME280;55778;54.346;10.210;2023-04-23T05:11:35;100173.50;;;8.81;100.00
68793;BME280;55778;54.346;10.210;2023-04-23T05:14:00;100176.81;;;8.85;100.00
68793;BME280;55778;54.346;10.210;2023-04-23T05:16:26;100173.94;;;8.86;100.00
68793;BME280;55778;54.346;10.210;2023-04-23T05:18:51;100183.25;;;8.84;100.00
68793;BME280;55778;54.346;10.210;2023-04-23T05:21:17;100175.56;;;8.79;100.00
68793;BME280;55778;54.346;10.210;2023-04-23T05:23:43;100178.56;;;8.76;100.00
68793;BME280;55778;54.346;10.210;2023-04-23T05:26:09;100188.13;;;8.80;100.00
68793;BME280;55778;54.346;10.210;2023-04-23T05:28:35;100176.09;;;8.83;100.00
68793;BME280;55778;54.346;10.210;2023-04-23T05:31:00;100177.25;;;8.80;100.00
68793;BME280;55778;54.346;10.210;2023-04-23T05:33:26;100187.72;;;8.75;100.00
68793;BME280;55778;54.346;10.210;2023-04-23T05:35:52;100193.31;;;8.74;100.00
68793;BME280;55778;54.346;10.210;2023-04-23T05:38:18;100194.28;;;8.82;100.00
68793;BME280;55778;54.346;10.210;2023-04-23T05:40:44;100202.13;;;8.85;100.00
68793;BME280;55778;54.346;10.210;2023-04-23T05:43:09;100205.94;;;8.92;100.00
68793;BME280;55778;54.346;10.210;2023-04-23T05:45:35;100213.44;;;8.81;100.00
68793;BME280;55778;54.346;10.210;2023-04-23T05:48:00;100214.28;;;8.81;100.00
68793;BME280;55778;54.346;10.210;2023-04-23T05:50:26;100215.44;;;8.79;100.00
68793;BME280;55778;54.346;10.210;2023-04-23T05:52:51;100213.72;;;8.78;100.00
68793;BME280;55778;54.346;10.210;2023-04-23T05:55:18;100222.75;;;8.78;100.00
68793;BME280;55778;54.346;10.210;2023-04-23T05:57:45;100220.19;;;8.77;100.00
68793;BME280;55778;54.346;10.210;2023-04-23T06:00:11;100224.09;;;8.92;100.00
68793;BME280;55778;54.346;10.210;2023-04-23T06:02:37;100212.91;;;9.04;100.00
68793;BME280;55778;54.346;10.210;2023-04-23T06:05:03;100221.78;;;9.06;100.00
68793;BME280;55778;54.346;10.210;2023-04-23T06:07:30;100216.41;;;8.87;100.00
68793;BME280;55778;54.346;10.210;2023-04-23T06:09:55;100219.06;;;9.06;100.00
68793;BME280;55778;54.346;10.210;2023-04-23T06:12:21;100211.50;;;9.00;100.00
68793;BME280;55778;54.346;10.210;2023-04-23T06:14:46;100214.53;;;8.97;100.00
68793;BME280;55778;54.346;10.210;2023-04-23T06:17:12;100214.81;;;8.94;100.00
68793;BME280;55778;54.346;10.210;2023-04-23T06:19:37;100209.00;;;9.16;100.00
68793;BME280;55778;54.346;10.210;2023-04-23T06:22:02;100207.97;;;9.17;100.00
68793;BME280;55778;54.346;10.210;2023-04-23T06:24:28;100207.91;;;9.00;99.68
68793;BME280;55778;54.346;10.210;2023-04-23T06:26:54;100211.31;;;9.11;98.71
68793;BME280;55778;54.346;10.210;2023-04-23T06:29:20;100219.06;;;9.06;100.00
68793;BME280;55778;54.346;10.210;2023-04-23T06:31:45;100213.13;;;9.20;100.00
68793;BME280;55778;54.346;10.210;2023-04-23T06:34:11;100206.28;;;9.43;100.00
68793;BME280;55778;54.346;10.210;2023-04-23T06:36:36;100223.81;;;9.31;98.89
68793;BME280;55778;54.346;10.210;2023-04-23T06:39:01;100218.53;;;9.30;97.39
68793;BME280;55778;54.346;10.210;2023-04-23T06:41:27;100220.50;;;9.37;95.67
68793;BME280;55778;54.346;10.210;2023-04-23T06:43:52;100214.16;;;9.10;94.57
68793;BME280;55778;54.346;10.210;2023-04-23T06:46:18;100221.63;;;9.35;94.03
68793;BME280;55778;54.346;10.210;2023-04-23T06:48:43;100218.56;;;9.47;94.18
68793;BME280;55778;54.346;10.210;2023-04-23T06:51:09;100223.97;;;9.30;92.79
68793;BME280;55778;54.346;10.210;2023-04-23T06:53:35;100212.56;;;9.44;92.30
68793;BME280;55778;54.346;10.210;2023-04-23T06:56:00;100217.53;;;9.48;92.16
68793;BME280;55778;54.346;10.210;2023-04-23T06:58:25;100224.47;;;9.43;93.40
68793;BME280;55778;54.346;10.210;2023-04-23T07:00:56;100212.94;;;9.31;92.36
68793;BME280;55778;54.346;10.210;2023-04-23T07:03:25;100216.28;;;9.43;92.33
68793;BME280;55778;54.346;10.210;2023-04-23T07:05:50;100220.19;;;9.40;91.99
68793;BME280;55778;54.346;10.210;2023-04-23T07:08:16;100231.44;;;9.45;92.19
68793;BME280;55778;54.346;10.210;2023-04-23T07:10:41;100230.66;;;9.80;90.56
68793;BME280;55778;54.346;10.210;2023-04-23T07:13:07;100228.66;;;9.82;90.09
68793;BME280;55778;54.346;10.210;2023-04-23T07:15:32;100222.41;;;9.72;90.53
68793;BME280;55778;54.346;10.210;2023-04-23T07:17:57;100216.47;;;9.59;91.13
68793;BME280;55778;54.346;10.210;2023-04-23T07:20:23;100216.34;;;9.78;90.96
68793;BME280;55778;54.346;10.210;2023-04-23T07:22:48;100222.31;;;10.26;88.35
68793;BME280;55778;54.346;10.210;2023-04-23T07:25:14;100219.34;;;10.20;88.09
68793;BME280;55778;54.346;10.210;2023-04-23T07:27:39;100213.25;;;10.43;87.20
68793;BME280;55778;54.346;10.210;2023-04-23T07:30:05;100225.44;;;10.57;86.17
68793;BME280;55778;54.346;10.210;2023-04-23T07:32:31;100216.69;;;10.71;84.62
68793;BME280;55778;54.346;10.210;2023-04-23T07:34:58;100219.00;;;10.40;85.88
68793;BME280;55778;54.346;10.210;2023-04-23T07:37:23;100227.91;;;10.68;83.32
68793;BME280;55778;54.346;10.210;2023-04-23T07:39:48;100222.38;;;10.17;85.71
68793;BME280;55778;54.346;10.210;2023-04-23T07:42:14;100228.13;;;10.31;84.86
68793;BME280;55778;54.346;10.210;2023-04-23T07:44:39;100234.03;;;10.44;84.63
68793;BME280;55778;54.346;10.210;2023-04-23T07:47:05;100236.72;;;10.62;82.72
68793;BME280;55778;54.346;10.210;2023-04-23T07:49:30;100231.38;;;10.52;83.67
68793;BME280;55778;54.346;10.210;2023-04-23T07:51:55;100236.28;;;10.49;85.57
68793;BME280;55778;54.346;10.210;2023-04-23T07:54:21;100230.94;;;10.22;86.04
68793;BME280;55778;54.346;10.210;2023-04-23T07:56:46;100228.75;;;10.43;85.46
68793;BME280;55778;54.346;10.210;2023-04-23T07:59:12;100230.09;;;10.64;85.58
68793;BME280;55778;54.346;10.210;2023-04-23T08:01:37;100229.63;;;10.94;82.23
68793;BME280;55778;54.346;10.210;2023-04-23T08:04:03;100221.72;;;10.58;83.81
68793;BME280;55778;54.346;10.210;2023-04-23T08:06:28;100226.53;;;10.46;85.42
68793;BME280;55778;54.346;10.210;2023-04-23T08:08:59;100237.41;;;10.64;85.16
68793;BME280;55778;54.346;10.210;2023-04-23T08:11:24;100234.28;;;11.02;85.28
68793;BME280;55778;54.346;10.210;2023-04-23T08:13:50;100227.13;;;11.34;82.85
68793;BME280;55778;54.346;10.210;2023-04-23T08:16:15;100222.72;;;11.41;80.78
68793;BME280;55778;54.346;10.210;2023-04-23T08:18:40;100225.78;;;11.72;78.09
68793;BME280;55778;54.346;10.210;2023-04-23T08:21:06;100221.63;;;11.68;78.67
68793;BME280;55778;54.346;10.210;2023-04-23T08:23:31;100218.00;;;12.09;77.87
68793;BME280;55778;54.346;10.210;2023-04-23T08:25:57;100219.44;;;11.71;77.08
68793;BME280;55778;54.346;10.210;2023-04-23T08:28:22;100219.28;;;11.81;77.75
68793;BME280;55778;54.346;10.210;2023-04-23T08:30:48;100216.75;;;11.87;76.99
68793;BME280;55778;54.346;10.210;2023-04-23T08:33:13;100212.44;;;11.77;76.89
68793;BME280;55778;54.346;10.210;2023-04-23T08:35:38;100208.78;;;11.52;78.41
68793;BME280;55778;54.346;10.210;2023-04-23T08:38:04;100207.03;;;11.43;77.70
68793;BME280;55778;54.346;10.210;2023-04-23T08:40:31;100211.41;;;11.28;77.58
68793;BME280;55778;54.346;10.210;2023-04-23T08:43:01;100211.34;;;11.12;78.68
68793;BME280;55778;54.346;10.210;2023-04-23T08:45:27;100215.50;;;11.66;79.35
68793;BME280;55778;54.346;10.210;2023-04-23T08:47:57;100216.22;;;11.84;75.90
68793;BME280;55778;54.346;10.210;2023-04-23T08:50:24;100219.53;;;11.54;76.94
68793;BME280;55778;54.346;10.210;2023-04-23T08:52:53;100215.06;;;11.45;78.01
68793;BME280;55778;54.346;10.210;2023-04-23T08:55:20;100217.81;;;12.02;75.24
68793;BME280;55778;54.346;10.210;2023-04-23T08:57:46;100220.19;;;12.05;75.78
68793;BME280;55778;54.346;10.210;2023-04-23T09:00:13;100223.44;;;12.17;74.70
68793;BME280;55778;54.346;10.210;2023-04-23T09:02:42;100226.53;;;12.38;75.10
68793;BME280;55778;54.346;10.210;2023-04-23T09:05:08;100215.91;;;13.07;69.67
68793;BME280;55778;54.346;10.210;2023-04-23T09:07:34;100228.59;;;12.28;71.76
68793;BME280;55778;54.346;10.210;2023-04-23T09:10:01;100220.66;;;13.13;67.92
68793;BME280;55778;54.346;10.210;2023-04-23T09:12:27;100217.66;;;12.36;69.35
68793;BME280;55778;54.346;10.210;2023-04-23T09:14:52;100224.50;;;12.16;69.91
68793;BME280;55778;54.346;10.210;2023-04-23T09:17:18;100219.00;;;12.72;67.00
68793;BME280;55778;54.346;10.210;2023-04-23T09:19:45;100219.34;;;12.21;70.29
68793;BME280;55778;54.346;10.210;2023-04-23T09:22:11;100215.97;;;11.61;71.44
68793;BME280;55778;54.346;10.210;2023-04-23T09:24:40;100213.78;;;11.65;72.53
68793;BME280;55778;54.346;10.210;2023-04-23T09:27:06;100218.91;;;11.68;73.03
68793;BME280;55778;54.346;10.210;2023-04-23T09:29:31;100212.53;;;11.59;72.82
68793;BME280;55778;54.346;10.210;2023-04-23T09:32:06;100217.31;;;12.07;72.24
68793;BME280;55778;54.346;10.210;2023-04-23T09:34:34;100213.41;;;12.42;70.28
68793;BME280;55778;54.346;10.210;2023-04-23T09:37:02;100212.69;;;12.56;70.50
68793;BME280;55778;54.346;10.210;2023-04-23T09:39:29;100217.13;;;12.89;69.19
68793;BME280;55778;54.346;10.210;2023-04-23T09:42:04;100213.00;;;12.93;68.86
68793;BME280;55778;54.346;10.210;2023-04-23T09:44:31;100224.47;;;12.64;68.54
68793;BME280;55778;54.346;10.210;2023-04-23T09:47:05;100215.59;;;12.30;68.16
68793;BME280;55778;54.346;10.210;2023-04-23T09:49:31;100224.84;;;12.77;68.08
68793;BME280;55778;54.346;10.210;2023-04-23T09:52:05;100215.03;;;11.94;69.38
68793;BME280;55778;54.346;10.210;2023-04-23T09:54:30;100212.16;;;11.96;71.13
68793;BME280;55778;54.346;10.210;2023-04-23T09:56:57;100208.78;;;12.26;69.73
68793;BME280;55778;54.346;10.210;2023-04-23T09:59:27;100207.75;;;12.35;70.22
68793;BME280;55778;54.346;10.210;2023-04-23T10:01:54;100205.31;;;12.96;67.86
68793;BME280;55778;54.346;10.210;2023-04-23T10:04:21;100214.59;;;12.63;68.68
68793;BME280;55778;54.346;10.210;2023-04-23T10:06:54;100206.34;;;13.11;67.73
68793;BME280;55778;54.346;10.210;2023-04-23T10:09:20;100206.50;;;13.10;70.13
68793;BME280;55778;54.346;10.210;2023-04-23T10:11:51;100203.00;;;13.70;68.89
68793;BME280;55778;54.346;10.210;2023-04-23T10:14:17;100195.25;;;14.04;62.82
68793;BME280;55778;54.346;10.210;2023-04-23T10:16:45;100205.78;;;14.61;62.04
68793;BME280;55778;54.346;10.210;2023-04-23T10:19:13;100193.00;;;15.05;58.40
68793;BME280;55778;54.346;10.210;2023-04-23T10:21:41;100193.47;;;14.94;57.99
68793;BME280;55778;54.346;10.210;2023-04-23T10:24:09;100206.84;;;14.60;60.93
68793;BME280;55778;54.346;10.210;2023-04-23T10:26:37;100206.63;;;14.24;62.10
68793;BME280;55778;54.346;10.210;2023-04-23T10:29:04;100196.94;;;13.44;62.71
68793;BME280;55778;54.346;10.210;2023-04-23T10:31:33;100205.53;;;14.70;60.54
68793;BME280;55778;54.346;10.210;2023-04-23T10:34:01;100191.59;;;14.12;60.57
68793;BME280;55778;54.346;10.210;2023-04-23T10:36:31;100199.38;;;14.31;62.26
68793;BME280;55778;54.346;10.210;2023-04-23T10:38:57;100198.44;;;15.42;57.04
68793;BME280;55778;54.346;10.210;2023-04-23T10:41:35;100194.06;;;15.62;55.18
68793;BME280;55778;54.346;10.210;2023-04-23T10:44:03;100184.47;;;15.58;55.22
68793;BME280;55778;54.346;10.210;2023-04-23T10:46:29;100185.44;;;15.50;55.97
68793;BME280;55778;54.346;10.210;2023-04-23T10:49:12;100186.13;;;15.23;56.71
68793;BME280;55778;54.346;10.210;2023-04-23T10:51:42;100188.41;;;15.84;55.05
68793;BME280;55778;54.346;10.210;2023-04-23T10:54:10;100189.97;;;15.29;55.52
68793;BME280;55778;54.346;10.210;2023-04-23T10:56:38;100189.38;;;15.77;52.84
68793;BME280;55778;54.346;10.210;2023-04-23T10:59:26;100182.13;;;16.68;51.17
68793;BME280;55778;54.346;10.210;2023-04-23T11:01:51;100177.13;;;17.12;49.60
68793;BME280;55778;54.346;10.210;2023-04-23T11:04:27;100169.78;;;16.01;50.53
68793;BME280;55778;54.346;10.210;2023-04-23T11:09:28;100168.75;;;16.02;52.79
68793;BME280;55778;54.346;10.210;2023-04-23T11:11:54;100167.34;;;16.48;53.43
68793;BME280;55778;54.346;10.210;2023-04-23T11:14:19;100176.31;;;17.93;47.63
68793;BME280;55778;54.346;10.210;2023-04-23T11:16:47;100171.59;;;18.73;45.36
68793;BME280;55778;54.346;10.210;2023-04-23T11:19:12;100171.13;;;17.70;46.76
68793;BME280;55778;54.346;10.210;2023-04-23T11:26:57;100164.31;;;18.33;45.60
68793;BME280;55778;54.346;10.210;2023-04-23T11:29:24;100172.34;;;18.28;45.55
68793;BME280;55778;54.346;10.210;2023-04-23T11:31:51;100169.22;;;15.70;50.02
68793;BME280;55778;54.346;10.210;2023-04-23T11:34:17;100162.34;;;16.86;49.54
68793;BME280;55778;54.346;10.210;2023-04-23T11:36:43;100168.16;;;18.32;45.25
68793;BME280;55778;54.346;10.210;2023-04-23T11:39:09;100170.53;;;18.48;44.47
68793;BME280;55778;54.346;10.210;2023-04-23T11:41:37;100165.69;;;17.90;45.79
68793;BME280;55778;54.346;10.210;2023-04-23T11:44:03;100165.59;;;16.26;48.57
68793;BME280;55778;54.346;10.210;2023-04-23T11:46:29;100167.44;;;16.19;49.76
68793;BME280;55778;54.346;10.210;2023-04-23T11:48:54;100170.44;;;16.66;46.16
68793;BME280;55778;54.346;10.210;2023-04-23T11:51:26;100170.06;;;17.71;43.63
68793;BME280;55778;54.346;10.210;2023-04-23T11:53:51;100165.22;;;18.79;41.58
68793;BME280;55778;54.346;10.210;2023-04-23T11:56:17;100165.44;;;18.97;41.42
68793;BME280;55778;54.346;10.210;2023-04-23T11:58:44;100151.16;;;19.13;40.72
68793;BME280;55778;54.346;10.210;2023-04-23T12:01:10;100152.13;;;17.88;44.02
68793;BME280;55778;54.346;10.210;2023-04-23T12:03:38;100164.72;;;16.61;46.68
68793;BME280;55778;54.346;10.210;2023-04-23T12:06:04;100157.81;;;17.74;44.61
68793;BME280;55778;54.346;10.210;2023-04-23T12:08:33;100162.63;;;18.32;42.30
68793;BME280;55778;54.346;10.210;2023-04-23T12:11:01;100161.13;;;17.63;44.04
68793;BME280;55778;54.346;10.210;2023-04-23T12:13:28;100162.78;;;18.11;42.90
68793;BME280;55778;54.346;10.210;2023-04-23T12:15:57;100165.59;;;17.64;45.98
68793;BME280;55778;54.346;10.210;2023-04-23T12:18:34;100167.28;;;19.36;43.35
68793;BME280;55778;54.346;10.210;2023-04-23T12:23:30;100172.44;;;19.76;40.07
68793;BME280;55778;54.346;10.210;2023-04-23T12:25:57;100161.78;;;19.10;40.85
68793;BME280;55778;54.346;10.210;2023-04-23T12:28:23;100169.81;;;19.24;42.15
68793;BME280;55778;54.346;10.210;2023-04-23T12:30:48;100161.53;;;17.53;46.07
68793;BME280;55778;54.346;10.210;2023-04-23T12:33:14;100163.75;;;18.57;44.54
68793;BME280;55778;54.346;10.210;2023-04-23T12:35:41;100172.00;;;18.64;45.02
68793;BME280;55778;54.346;10.210;2023-04-23T12:38:06;100160.09;;;19.09;42.41
68793;BME280;55778;54.346;10.210;2023-04-23T12:40:32;100149.94;;;18.90;43.54
68793;BME280;55778;54.346;10.210;2023-04-23T12:42:58;100160.75;;;18.72;44.19